Time,TemperatureF,DewpointF,PressureIn,WindDirection,WindDirectionDegrees,WindSpeedMPH,WindSpeedGustMPH,Humidity,HourlyPrecipIn,Conditions,Clouds,dailyrainin,SoftwareType,DateUTC
2013-11-04 00:12:00,47.0,-99.9,-100.00,SE,126,14.0,19.0,-999,0.00,,,0.00,,2013-11-04 06:12:00,
2013-11-04 00:23:00,47.0,-99.9,-100.00,SE,126,14.0,19.0,-999,0.00,,,0.00,,2013-11-04 06:23:00,
2013-11-04 00:42:00,47.0,-99.9,-100.00,SE,127,11.0,14.0,-999,0.00,,,0.00,,2013-11-04 06:42:00,
2013-11-04 00:52:00,47.0,-99.9,-100.00,SE,127,11.0,14.0,-999,0.00,,,0.00,,2013-11-04 06:52:00,
2013-11-04 01:11:00,48.0,-99.9,-100.00,SE,134,14.0,17.0,-999,0.00,,,0.00,,2013-11-04 07:11:00,
2013-11-04 01:22:00,48.0,-99.9,-100.00,SE,134,14.0,17.0,-999,0.00,,,0.00,,2013-11-04 07:22:00,
2013-11-04 01:43:00,48.0,-99.9,-100.00,SE,130,13.0,17.0,-999,0.00,,,0.00,,2013-11-04 07:43:00,
2013-11-04 01:52:00,48.0,-99.9,-100.00,SE,130,13.0,17.0,-999,0.00,,,0.00,,2013-11-04 07:52:00,
2013-11-04 02:12:00,48.0,-99.9,-100.00,SE,131,12.0,18.0,-999,0.00,,,0.00,,2013-11-04 08:12:00,
2013-11-04 02:22:00,48.0,-99.9,-100.00,SE,131,12.0,18.0,-999,0.00,,,0.00,,2013-11-04 08:22:00,
2013-11-04 02:42:00,47.0,-99.9,-100.00,SE,129,14.0,18.0,-999,0.00,,,0.00,,2013-11-04 08:42:00,
2013-11-04 02:52:00,47.0,-99.9,-100.00,SE,129,14.0,18.0,-999,0.00,,,0.00,,2013-11-04 08:52:00,
2013-11-04 03:12:00,47.0,-99.9,-100.00,SE,133,13.0,18.0,-999,0.00,,,0.00,,2013-11-04 09:12:00,
2013-11-04 03:22:00,47.0,-99.9,-100.00,SE,133,13.0,18.0,-999,0.00,,,0.00,,2013-11-04 09:22:00,
2013-11-04 03:43:00,47.0,-99.9,-100.00,SE,135,8.0,14.0,-999,0.00,,,0.00,,2013-11-04 09:43:00,
2013-11-04 03:53:00,47.0,-99.9,-100.00,SE,135,8.0,14.0,-999,0.00,,,0.00,,2013-11-04 09:53:00,
2013-11-04 04:12:00,47.0,-99.9,-100.00,SE,134,10.0,14.0,-999,0.00,,,0.00,,2013-11-04 10:12:00,
2013-11-04 04:23:00,47.0,-99.9,-100.00,SE,134,10.0,14.0,-999,0.00,,,0.00,,2013-11-04 10:23:00,
2013-11-04 04:43:00,47.0,-99.9,-100.00,SE,139,11.0,15.0,-999,0.00,,,0.00,,2013-11-04 10:43:00,
2013-11-04 04:52:00,47.0,-99.9,-100.00,SE,139,11.0,15.0,-999,0.00,,,0.00,,2013-11-04 10:52:00,
2013-11-04 05:12:00,46.0,-99.9,-100.00,SE,141,12.0,16.0,-999,0.00,,,0.00,,2013-11-04 11:12:00,
2013-11-04 05:22:00,46.0,-99.9,-100.00,SE,141,12.0,16.0,-999,0.00,,,0.00,,2013-11-04 11:22:00,
2013-11-04 05:43:00,46.0,-99.9,-100.00,SSE,154,11.0,19.0,-999,0.00,,,0.00,,2013-11-04 11:43:00,
2013-11-04 05:52:00,46.0,-99.9,-100.00,SSE,154,11.0,19.0,-999,0.00,,,0.00,,2013-11-04 11:52:00,
2013-11-04 06:12:00,46.0,-99.9,-100.00,SE,144,12.0,15.0,-999,0.00,,,0.00,,2013-11-04 12:12:00,
2013-11-04 06:22:00,46.0,-99.9,-100.00,SE,144,12.0,15.0,-999,0.00,,,0.00,,2013-11-04 12:22:00,
2013-11-04 06:42:00,46.0,-99.9,-100.00,SSE,147,11.0,15.0,-999,0.00,,,0.00,,2013-11-04 12:42:00,
2013-11-04 06:52:00,46.0,-99.9,-100.00,SSE,147,11.0,15.0,-999,0.00,,,0.00,,2013-11-04 12:52:00,
2013-11-04 07:12:00,46.0,-99.9,-100.00,SSE,149,11.0,13.0,-999,0.00,,,0.00,,2013-11-04 13:12:00,
2013-11-04 07:22:00,46.0,-99.9,-100.00,SSE,149,11.0,13.0,-999,0.00,,,0.00,,2013-11-04 13:22:00,
2013-11-04 07:42:00,47.0,-99.9,-100.00,SE,146,13.0,23.0,-999,0.00,,,0.00,,2013-11-04 13:42:00,
2013-11-04 07:52:00,47.0,-99.9,-100.00,SE,146,13.0,23.0,-999,0.00,,,0.00,,2013-11-04 13:52:00,
2013-11-04 08:11:00,48.0,-99.9,-100.00,SSE,150,12.0,18.0,-999,0.00,,,0.00,,2013-11-04 14:11:00,
2013-11-04 08:22:00,48.0,-99.9,-100.00,SSE,150,12.0,18.0,-999,0.00,,,0.00,,2013-11-04 14:22:00,
2013-11-04 08:42:00,48.0,-99.9,-100.00,SSE,150,10.0,17.0,-999,0.00,,,0.00,,2013-11-04 14:42:00,
2013-11-04 08:52:00,48.0,-99.9,-100.00,SSE,150,10.0,17.0,-999,0.00,,,0.00,,2013-11-04 14:52:00,
2013-11-04 09:11:00,49.0,-99.9,-100.00,SSE,151,10.0,19.0,-999,0.00,,,0.00,,2013-11-04 15:11:00,
2013-11-04 09:22:00,49.0,-99.9,-100.00,SSE,151,10.0,19.0,-999,0.00,,,0.00,,2013-11-04 15:22:00,
2013-11-04 09:30:00,50.0,-99.9,-100.00,SSE,159,5.0,10.0,-999,0.00,,,0.00,,2013-11-04 15:30:00,
2013-11-04 09:42:00,49.0,-99.9,-100.00,SSE,153,7.0,13.0,-999,0.00,,,0.00,,2013-11-04 15:42:00,
2013-11-04 09:52:00,49.0,-99.9,-100.00,SSE,153,7.0,13.0,-999,0.00,,,0.00,,2013-11-04 15:52:00,
2013-11-04 10:13:00,50.0,-99.9,-100.00,SSE,159,5.0,10.0,-999,0.00,,,0.00,,2013-11-04 16:13:00,
2013-11-04 10:23:00,50.0,-99.9,-100.00,SSE,159,5.0,10.0,-999,0.00,,,0.00,,2013-11-04 16:23:00,
2013-11-04 11:12:00,51.0,-99.9,-100.00,SSE,157,6.0,12.0,-999,0.00,,,0.00,,2013-11-04 17:12:00,
2013-11-04 11:22:00,51.0,-99.9,-100.00,SSE,157,6.0,12.0,-999,0.00,,,0.00,,2013-11-04 17:22:00,
2013-11-04 11:30:00,52.0,-99.9,-100.00,SSE,160,8.0,19.0,-999,0.00,,,0.00,,2013-11-04 17:30:00,
2013-11-04 11:42:00,53.0,-99.9,-100.00,SSE,160,7.0,12.0,-999,0.00,,,0.00,,2013-11-04 17:42:00,
2013-11-04 11:53:00,53.0,-99.9,-100.00,SSE,160,7.0,12.0,-999,0.00,,,0.00,,2013-11-04 17:53:00,
2013-11-04 12:12:00,52.0,-99.9,-100.00,SSE,160,8.0,19.0,-999,0.00,,,0.00,,2013-11-04 18:12:00,
2013-11-04 12:23:00,52.0,-99.9,-100.00,SSE,160,8.0,19.0,-999,0.00,,,0.00,,2013-11-04 18:23:00,
2013-11-04 13:12:00,52.0,-99.9,-100.00,SSE,165,5.0,11.0,-999,0.00,,,0.00,,2013-11-04 19:12:00,
2013-11-04 13:22:00,52.0,-99.9,-100.00,SSE,165,5.0,11.0,-999,0.00,,,0.00,,2013-11-04 19:22:00,
2013-11-04 13:42:00,54.0,-99.9,-100.00,SSE,161,4.0,11.0,-999,0.00,,,0.00,,2013-11-04 19:42:00,
2013-11-04 13:52:00,54.0,-99.9,-100.00,SSE,161,4.0,11.0,-999,0.00,,,0.00,,2013-11-04 19:52:00,
2013-11-04 14:11:00,56.0,-99.9,-100.00,SSE,167,5.0,12.0,-999,0.00,,,0.00,,2013-11-04 20:11:00,
2013-11-04 14:22:00,56.0,-99.9,-100.00,SSE,167,5.0,12.0,-999,0.00,,,0.00,,2013-11-04 20:22:00,
2013-11-04 14:42:00,57.0,-99.9,-100.00,South,173,4.0,6.0,-999,0.00,,,0.00,,2013-11-04 20:42:00,
2013-11-04 14:53:00,57.0,-99.9,-100.00,South,173,4.0,6.0,-999,0.00,,,0.00,,2013-11-04 20:53:00,
2013-11-04 15:12:00,57.0,-99.9,-100.00,SSE,166,4.0,10.0,-999,0.00,,,0.00,,2013-11-04 21:12:00,
2013-11-04 15:22:00,57.0,-99.9,-100.00,SSE,166,4.0,10.0,-999,0.00,,,0.00,,2013-11-04 21:22:00,
2013-11-04 15:45:00,56.0,-99.9,-100.00,South,187,2.0,3.0,-999,0.00,,,0.00,,2013-11-04 21:45:00,
2013-11-04 15:54:00,56.0,-99.9,-100.00,South,187,2.0,3.0,-999,0.00,,,0.00,,2013-11-04 21:54:00,
2013-11-04 16:14:00,55.0,-99.9,-100.00,South,175,2.0,2.0,-999,0.00,,,0.00,,2013-11-04 22:14:00,
2013-11-04 16:23:00,55.0,-99.9,-100.00,South,175,2.0,2.0,-999,0.00,,,0.00,,2013-11-04 22:23:00,
2013-11-04 16:43:00,55.0,-99.9,-100.00,SSE,168,2.0,3.0,-999,0.00,,,0.00,,2013-11-04 22:43:00,
2013-11-04 16:53:00,55.0,-99.9,-100.00,SSE,168,2.0,3.0,-999,0.00,,,0.00,,2013-11-04 22:53:00,
2013-11-04 17:13:00,54.0,-99.9,-100.00,South,187,0.0,1.0,-999,0.00,,,0.00,,2013-11-04 23:13:00,
2013-11-04 17:23:00,54.0,-99.9,-100.00,South,187,0.0,1.0,-999,0.00,,,0.00,,2013-11-04 23:23:00,
2013-11-04 17:43:00,53.0,-99.9,-100.00,South,183,1.0,1.0,-999,0.00,,,0.00,,2013-11-04 23:43:00,
2013-11-04 17:53:00,53.0,-99.9,-100.00,South,183,1.0,1.0,-999,0.00,,,0.00,,2013-11-04 23:53:00,
2013-11-04 18:12:00,53.0,-99.9,-100.00,SSW,197,0.0,0.0,-999,0.00,,,0.00,,2013-11-05 00:12:00,
2013-11-04 18:22:00,53.0,-99.9,-100.00,SSW,197,0.0,0.0,-999,0.00,,,0.00,,2013-11-05 00:22:00,
2013-11-04 18:42:00,53.0,-99.9,-100.00,South,189,0.0,0.0,-999,0.00,,,0.00,,2013-11-05 00:42:00,
2013-11-04 18:52:00,53.0,-99.9,-100.00,South,189,0.0,0.0,-999,0.00,,,0.00,,2013-11-05 00:52:00,
2013-11-04 19:11:00,52.0,-99.9,-100.00,SSE,155,0.0,0.0,-999,0.00,,,0.00,,2013-11-05 01:11:00,
2013-11-04 19:22:00,52.0,-99.9,-100.00,SSE,155,0.0,0.0,-999,0.00,,,0.00,,2013-11-05 01:22:00,
2013-11-04 19:42:00,52.0,-99.9,-100.00,SE,125,2.0,3.0,-999,0.00,,,0.00,,2013-11-05 01:42:00,
2013-11-04 19:52:00,52.0,-99.9,-100.00,SE,125,2.0,3.0,-999,0.00,,,0.00,,2013-11-05 01:52:00,
2013-11-04 20:11:00,53.0,-99.9,-100.00,SSE,154,1.0,2.0,-999,0.00,,,0.00,,2013-11-05 02:11:00,
2013-11-04 20:23:00,53.0,-99.9,-100.00,SSE,154,1.0,2.0,-999,0.00,,,0.00,,2013-11-05 02:23:00,
2013-11-04 20:42:00,53.0,-99.9,-100.00,South,187,0.0,0.0,-999,0.00,,,0.00,,2013-11-05 02:42:00,
2013-11-04 20:52:00,53.0,-99.9,-100.00,South,187,0.0,0.0,-999,0.00,,,0.00,,2013-11-05 02:52:00,
2013-11-04 21:12:00,52.0,-99.9,-100.00,WNW,293,0.0,1.0,-999,0.00,,,0.00,,2013-11-05 03:12:00,
2013-11-04 21:22:00,52.0,-99.9,-100.00,WNW,293,0.0,1.0,-999,0.00,,,0.00,,2013-11-05 03:22:00,
2013-11-04 21:44:00,52.0,-99.9,-100.00,West,278,2.0,3.0,-999,0.00,,,0.00,,2013-11-05 03:44:00,
2013-11-04 21:54:00,52.0,-99.9,-100.00,West,278,2.0,3.0,-999,0.00,,,0.00,,2013-11-05 03:54:00,
2013-11-04 22:14:00,51.0,-99.9,-100.00,West,277,0.0,1.0,-999,0.00,,,0.00,,2013-11-05 04:14:00,
2013-11-04 22:23:00,51.0,-99.9,-100.00,West,277,0.0,1.0,-999,0.00,,,0.00,,2013-11-05 04:23:00,
2013-11-04 22:44:00,51.0,-99.9,-100.00,NNW,339,1.0,2.0,-999,0.00,,,0.00,,2013-11-05 04:44:00,
2013-11-04 22:53:00,51.0,-99.9,-100.00,NNW,339,1.0,2.0,-999,0.00,,,0.00,,2013-11-05 04:53:00,
2013-11-04 23:13:00,50.0,-99.9,-100.00,NW,304,0.0,1.0,-999,0.00,,,0.00,,2013-11-05 05:13:00,
2013-11-04 23:23:00,50.0,-99.9,-100.00,NW,304,0.0,1.0,-999,0.00,,,0.00,,2013-11-05 05:23:00,
2013-11-04 23:44:00,51.0,-99.9,-100.00,NNW,339,0.0,0.0,-999,0.00,,,0.00,,2013-11-05 05:44:00,
2013-11-04 23:54:00,51.0,-99.9,-100.00,NNW,339,0.0,0.0,-999,0.00,,,0.00,,2013-11-05 05:54:00,